Palestine, TX

11:54 AM CST on January 22, 2017 (GMT -0600)
Westwood | | Change Station
Active Advisory: Wind Advisory

Elev 422 ft 31.75 °N, 95.66 °W | Updated 34 seconds ago

Partly Cloudy
Partly Cloudy
62.6 °F
Feels Like 62.6 °F
N
3.7
Wind Variable Wind from East

Today
High -- | Low -- °F
--% Chance of Precip.
Yesterday
High -- | Low -- °F
Precip. -- in
Pressure 29.61 in
Visibility 10.0 miles
Clouds Clear
Dew Point 48 °F
Humidity 58%
Rainfall 0.00 in
Snow Depth Not available.
7:20 AM 5:48 PM
Waning Crescent, 25% visible
METAR KPSN 221735Z AUTO 29018G30KT 10SM CLR 15/06 A2961 RMK AO2 P0001 T01540069
Pressure 29.61 in
Visibility 10.0 miles
Clouds Clear
Dew Point 48 °F
Humidity 58%
Rainfall 0.00 in
Snow Depth Not available.
7:20 AM 5:48 PM
Waning Crescent, 25% visible
METAR KPSN 221735Z AUTO 29018G30KT 10SM CLR 15/06 A2961 RMK AO2 P0001 T01540069

Get Your Daily Forecast Email!

Thanks for signing up!

Be on the lookout for a verification email in your inbox.

You'll start receiving the daily forecast at 8 AM.

×

10-Day Weather Forecast

Almanac

Astronomy

Jan. 22, 2017 Rise Set
Actual Time
Civil Twilight
Nautical Twilight
Astronomical Twilight
Moon
Length of Visible Light
Length of Day
Tomorrow will be .
, % of the Moon is Illuminated

Today's Extremes

State Highs State Lows

Community

WunderPhotos

Upload Photos

1,962,540 photos uploaded!

WunderBlog® & News

Nearby

Air Quality

  Air Quality AQ Index Pollutant
Not available.

Snow Depth

Station Depth Elevation

Earthquake Activity

City Distance Mag. Time & Date
Minimum magnitude displayed is 2.5.

Coastal Water Temperatures

Place Temperature

Stations

Nearby Weather Stations

Station Location Temp. Windchill Dew Point Humidity Wind Precip. Elev Updated Type
                   

Watches & Warnings

Wind Advisory
Issued: 3:44 AM CST Jan. 22, 2017 – National Weather Service

... Wind Advisory in effect from 9 am this morning to 6 PM CST
this evening...

The National Weather Service in Fort Worth has issued a Wind
Advisory, which is in effect from 9 am this morning to 6 PM CST
this evening.

* Timing... from 9 am CST to 6 PM CST Sunday.

* Winds... west winds becoming northwest this morning. Sustained
winds of 20 to 30 mph with gusts in excess of 35 mph possible.

* Impacts... these winds will blow around loose items such as trash
cans and patio furniture. Winds will also make open waters of
area lakes choppy and dangerous. Strong Crosswinds will pose a
hazard to high-profile vehicles traveling on north-south
oriented highways.

Precautionary/preparedness actions...

A Wind Advisory means that sustained winds of at least 20 to
30 mph are expected. Winds this strong can make driving
difficult... especially for high profile vehicles. Boaters should
use extra caution when venturing onto area lakes. Residents may
wish to take action to secure trash cans... lawn furniture... and
other lightweight outdoor objects that may be blown around in the
strong winds.